createdAt,value
2023-03-21T00:00:50.599Z,6.60
2023-03-21T00:03:20.702Z,6.70
2023-03-21T00:05:52.004Z,7.32
2023-03-21T00:08:20.649Z,5.90
2023-03-21T00:10:49.922Z,6.97
2023-03-21T00:13:19.636Z,5.03
2023-03-21T00:16:14.712Z,8.20
2023-03-21T00:18:48.831Z,6.53
2023-03-21T00:24:08.240Z,5.53
2023-03-21T00:26:38.244Z,9.88
2023-03-21T00:29:08.139Z,7.00
2023-03-21T00:31:37.069Z,5.90
2023-03-21T00:34:06.901Z,8.07
2023-03-21T00:36:35.188Z,8.45
2023-03-21T00:39:04.735Z,6.65
2023-03-21T00:41:43.224Z,7.55
2023-03-21T00:44:14.036Z,7.20
2023-03-21T00:46:51.559Z,6.55
2023-03-21T00:49:27.933Z,5.97
2023-03-21T00:51:59.549Z,7.18
2023-03-21T00:54:33.883Z,7.72
2023-03-21T00:57:02.990Z,5.38
2023-03-21T00:59:31.524Z,6.53
2023-03-21T01:02:01.412Z,8.43
2023-03-21T01:04:31.327Z,6.90
2023-03-21T01:06:59.744Z,6.07
2023-03-21T01:09:28.042Z,7.72
2023-03-21T01:11:56.382Z,8.30
2023-03-21T01:14:25.307Z,7.47
2023-03-21T01:16:55.681Z,6.95
2023-03-21T01:19:44.236Z,6.47
2023-03-21T01:22:18.346Z,6.75
2023-03-21T01:24:54.187Z,9.85
2023-03-21T01:27:26.855Z,9.52
2023-03-21T01:29:55.469Z,6.63
2023-03-21T01:32:24.180Z,7.53
2023-03-21T01:34:53.152Z,8.30
2023-03-21T01:37:22.786Z,5.95
2023-03-21T01:39:51.272Z,8.25
2023-03-21T01:42:20.153Z,7.53
2023-03-21T01:44:57.221Z,6.75
2023-03-21T01:47:26.098Z,5.97
2023-03-21T01:49:57.679Z,7.65
2023-03-21T01:52:37.139Z,8.80
2023-03-21T01:55:12.763Z,6.15
2023-03-21T01:58:03.953Z,5.50
2023-03-21T02:00:34.484Z,6.45
2023-03-21T02:03:15.258Z,5.97
2023-03-21T02:05:57.439Z,8.18
2023-03-21T02:08:38.425Z,6.22
2023-03-21T02:11:11.213Z,6.38
2023-03-21T02:13:41.781Z,7.55
2023-03-21T02:16:19.375Z,5.25
2023-03-21T02:18:55.553Z,5.45
2023-03-21T02:21:49.763Z,5.75
2023-03-21T02:24:59.596Z,8.57
2023-03-21T02:27:32.121Z,9.57
2023-03-21T02:30:29.382Z,6.65
2023-03-21T02:33:13.685Z,5.28
2023-03-21T02:36:13.587Z,7.28
2023-03-21T02:38:53.454Z,5.63
2023-03-21T02:41:32.451Z,6.07
2023-03-21T02:44:11.931Z,6.13
2023-03-21T02:46:53.771Z,6.30
2023-03-21T02:49:28.899Z,5.65
2023-03-21T02:52:08.567Z,6.28
2023-03-21T02:54:49.159Z,7.03
2023-03-21T02:57:21.021Z,6.38
2023-03-21T02:59:55.683Z,5.75
2023-03-21T03:02:33.464Z,6.20
2023-03-21T03:05:06.518Z,8.27
2023-03-21T03:07:45.645Z,7.20
2023-03-21T03:10:27.451Z,6.10
2023-03-21T03:13:03.455Z,9.70
2023-03-21T03:15:47.866Z,6.35
2023-03-21T03:18:26.219Z,8.88
2023-03-21T03:21:06.020Z,6.25
2023-03-21T03:23:44.529Z,7.03
2023-03-21T03:26:21.752Z,12.00
2023-03-21T03:28:52.986Z,5.70
2023-03-21T03:31:27.802Z,6.32
2023-03-21T03:33:59.606Z,5.28
2023-03-21T03:36:33.096Z,8.70
2023-03-21T03:39:06.469Z,12.52
2023-03-21T03:42:04.377Z,6.47
2023-03-21T03:44:30.348Z,6.47
2023-03-21T03:47:03.759Z,7.90
2023-03-21T03:49:34.709Z,10.25
2023-03-21T03:52:09.910Z,9.00
2023-03-21T03:54:42.041Z,5.75
2023-03-21T03:57:14.199Z,6.55
2023-03-21T03:59:45.383Z,7.20
2023-03-21T04:02:14.904Z,9.68
2023-03-21T04:04:43.705Z,8.13
2023-03-21T04:07:12.235Z,11.25
2023-03-21T04:09:44.853Z,6.30
2023-03-21T04:12:15.659Z,6.78
2023-03-21T04:14:46.110Z,6.85
2023-03-21T04:17:15.780Z,7.50
2023-03-21T04:19:45.412Z,8.73
2023-03-21T04:22:15.678Z,9.43
2023-03-21T04:24:46.501Z,7.03
2023-03-21T04:27:15.803Z,6.55
2023-03-21T04:29:44.753Z,8.32
2023-03-21T04:32:18.021Z,7.63
2023-03-21T04:34:50.254Z,9.38
2023-03-21T04:37:19.036Z,7.38
2023-03-21T04:39:48.501Z,6.50
2023-03-21T04:42:21.361Z,5.72
2023-03-21T04:44:50.209Z,8.70
2023-03-21T04:47:20.610Z,9.30
2023-03-21T04:49:50.576Z,10.20
2023-03-21T04:52:19.877Z,6.75
2023-03-21T04:54:49.111Z,10.68
2023-03-21T04:57:19.508Z,7.40
2023-03-21T04:59:49.112Z,8.68
2023-03-21T05:02:17.701Z,5.35
2023-03-21T05:04:46.859Z,6.60
2023-03-21T05:07:16.428Z,6.30
2023-03-21T05:09:44.930Z,6.97
2023-03-21T05:12:14.478Z,7.85
2023-03-21T05:14:44.288Z,8.27
2023-03-21T05:17:24.974Z,9.88
2023-03-21T05:19:53.848Z,8.73
2023-03-21T05:22:22.252Z,8.65
2023-03-21T05:24:50.975Z,7.03
2023-03-21T05:27:34.065Z,7.30
2023-03-21T05:30:08.353Z,8.45
2023-03-21T05:32:37.041Z,8.20
2023-03-21T05:35:06.067Z,8.52
2023-03-21T05:37:37.029Z,6.50
2023-03-21T05:40:06.699Z,5.35
2023-03-21T05:42:35.687Z,8.63
2023-03-21T05:45:05.776Z,8.43
2023-03-21T05:47:34.084Z,6.32
2023-03-21T05:50:02.580Z,8.52
2023-03-21T05:52:31.258Z,6.97
2023-03-21T05:54:59.640Z,8.23
2023-03-21T05:57:29.146Z,10.00
2023-03-21T05:59:58.027Z,8.77
2023-03-21T06:02:27.542Z,6.45
2023-03-21T06:04:58.340Z,10.88
2023-03-21T06:07:26.994Z,10.85
2023-03-21T06:09:56.481Z,5.90
2023-03-21T06:12:25.756Z,8.40
2023-03-21T06:14:56.056Z,8.00
2023-03-21T06:17:25.105Z,6.90
2023-03-21T06:19:58.141Z,10.73
2023-03-21T06:24:55.081Z,6.60
2023-03-21T06:27:24.877Z,9.60
2023-03-21T06:29:53.734Z,7.97
2023-03-21T06:32:23.002Z,8.90
2023-03-21T06:34:59.878Z,6.97
2023-03-21T06:37:38.901Z,8.73
2023-03-21T06:40:11.989Z,7.65
2023-03-21T06:45:11.814Z,6.38
2023-03-21T06:47:40.331Z,7.30
2023-03-21T06:50:09.567Z,9.13
2023-03-21T06:52:39.455Z,7.55
2023-03-21T06:55:09.267Z,8.20
2023-03-21T06:57:39.740Z,10.93
2023-03-21T07:00:11.066Z,6.43
2023-03-21T07:02:40.191Z,5.20
2023-03-21T07:05:10.802Z,7.47
2023-03-21T07:07:45.768Z,6.30
2023-03-21T07:10:16.885Z,6.45
2023-03-21T07:12:49.515Z,5.18
2023-03-21T07:15:25.140Z,8.40
2023-03-21T07:17:56.016Z,8.27
2023-03-21T07:20:24.422Z,5.53
2023-03-21T07:22:55.071Z,7.35
2023-03-21T07:25:26.704Z,6.05
2023-03-21T07:27:56.540Z,5.55
2023-03-21T07:30:25.303Z,5.75
2023-03-21T07:32:55.661Z,6.50
2023-03-21T07:35:24.489Z,5.93
2023-03-21T07:37:53.850Z,5.18
2023-03-21T07:40:22.999Z,7.55
2023-03-21T07:42:52.467Z,6.95
2023-03-21T07:45:25.658Z,6.50
2023-03-21T07:47:54.307Z,8.48
2023-03-21T07:50:23.188Z,5.07
2023-03-21T07:52:51.898Z,6.45
2023-03-21T07:55:22.105Z,10.43
2023-03-21T07:57:52.788Z,5.28
2023-03-21T08:00:25.518Z,6.05
2023-03-21T08:02:58.995Z,7.03
2023-03-21T08:05:32.643Z,6.13
2023-03-21T08:08:02.289Z,4.50
2023-03-21T08:10:34.908Z,7.10
2023-03-21T08:13:13.322Z,7.22
2023-03-21T08:15:42.573Z,6.50
2023-03-21T08:18:15.199Z,5.55
2023-03-21T08:20:43.701Z,5.93
2023-03-21T08:23:13.160Z,6.38
2023-03-21T08:25:45.566Z,6.72
2023-03-21T08:28:13.986Z,7.53
2023-03-21T08:30:42.683Z,7.13
2023-03-21T08:33:11.411Z,6.15
2023-03-21T08:35:41.252Z,4.13
2023-03-21T08:38:10.920Z,6.65
2023-03-21T08:40:44.975Z,7.82
2023-03-21T08:43:15.555Z,7.20
2023-03-21T08:45:45.509Z,6.32
2023-03-21T08:48:13.921Z,4.97
2023-03-21T08:50:42.617Z,8.63
2023-03-21T08:53:13.724Z,7.18
2023-03-21T08:55:42.365Z,6.93
2023-03-21T08:58:11.467Z,7.40
2023-03-21T09:00:44.199Z,8.05
2023-03-21T09:03:12.828Z,4.95
2023-03-21T09:05:45.683Z,6.10
2023-03-21T09:08:16.923Z,7.07
2023-03-21T09:10:48.033Z,6.28
2023-03-21T09:13:16.972Z,8.27
2023-03-21T09:15:46.718Z,5.68
2023-03-21T09:18:18.208Z,5.63
2023-03-21T09:20:48.496Z,4.60
2023-03-21T09:23:19.943Z,8.85
2023-03-21T09:25:48.654Z,7.18
2023-03-21T09:28:17.566Z,6.80
2023-03-21T09:30:47.294Z,7.38
2023-03-21T09:33:26.050Z,5.43
2023-03-21T09:35:56.315Z,5.78
2023-03-21T09:38:33.052Z,6.93
2023-03-21T09:41:15.192Z,5.85
2023-03-21T09:44:00.048Z,5.68
2023-03-21T09:46:38.633Z,5.97
2023-03-21T09:49:11.986Z,8.55
2023-03-21T09:51:46.557Z,5.93
2023-03-21T09:54:22.432Z,7.75
2023-03-21T09:56:55.054Z,6.40
2023-03-21T09:59:33.528Z,5.22
2023-03-21T10:02:08.559Z,6.68
2023-03-21T10:04:40.478Z,6.18
2023-03-21T10:07:10.718Z,6.30
2023-03-21T10:09:45.020Z,8.98
2023-03-21T10:12:17.978Z,8.77
2023-03-21T10:14:51.706Z,7.05
2023-03-21T10:17:31.046Z,8.05
2023-03-21T10:20:13.280Z,10.32
2023-03-21T10:22:42.910Z,6.80
2023-03-21T10:25:16.522Z,5.82
2023-03-21T10:27:45.543Z,7.15
2023-03-21T10:30:26.479Z,5.80
2023-03-21T10:32:59.729Z,4.57
2023-03-21T10:35:30.732Z,6.38
2023-03-21T10:37:59.804Z,4.88
2023-03-21T10:40:28.591Z,5.07
2023-03-21T10:42:59.707Z,11.77
2023-03-21T10:45:28.379Z,5.55
2023-03-21T10:48:00.569Z,5.53
2023-03-21T10:50:31.424Z,7.07
2023-03-21T10:53:01.766Z,7.72
2023-03-21T10:55:32.335Z,6.80
2023-03-21T10:58:04.293Z,8.57
2023-03-21T11:00:41.393Z,7.03
2023-03-21T11:03:23.929Z,6.30
2023-03-21T11:05:57.182Z,7.80
2023-03-21T11:08:27.237Z,5.70
2023-03-21T11:11:03.145Z,6.88
2023-03-21T11:13:38.947Z,6.18
2023-03-21T11:16:11.681Z,4.63
2023-03-21T11:21:14.216Z,5.10
2023-03-21T11:23:48.951Z,4.43
2023-03-21T11:26:24.575Z,5.30
2023-03-21T11:28:53.273Z,7.68
2023-03-21T11:31:24.846Z,6.10
2023-03-21T11:33:57.029Z,3.65
2023-03-21T11:36:38.008Z,6.80
2023-03-21T11:39:32.355Z,5.85
2023-03-21T11:42:01.991Z,4.65
2023-03-21T11:44:34.686Z,5.50
2023-03-21T11:47:04.341Z,4.97
2023-03-21T11:49:34.290Z,6.03
2023-03-21T11:52:18.439Z,3.85
2023-03-21T11:55:07.476Z,4.25
2023-03-21T11:57:45.513Z,5.25
2023-03-21T12:00:22.973Z,6.85
2023-03-21T12:03:24.030Z,5.65
2023-03-21T12:05:59.442Z,4.40
2023-03-21T12:08:42.317Z,3.42
2023-03-21T12:11:19.139Z,4.10
2023-03-21T12:13:58.435Z,4.90
2023-03-21T12:16:36.183Z,3.97
2023-03-21T12:19:27.023Z,3.95
2023-03-21T12:22:03.593Z,3.50
2023-03-21T12:24:40.622Z,4.18
2023-03-21T12:27:17.708Z,5.03
2023-03-21T12:29:54.661Z,3.15
2023-03-21T12:32:36.823Z,5.55
2023-03-21T12:35:23.719Z,4.45
2023-03-21T12:38:04.586Z,2.47
2023-03-21T12:40:51.707Z,4.07
2023-03-21T12:43:45.644Z,3.80
2023-03-21T12:46:22.134Z,2.95
2023-03-21T12:48:53.003Z,4.05
2023-03-21T12:51:29.770Z,5.43
2023-03-21T12:54:09.664Z,3.40
2023-03-21T12:56:46.477Z,6.55
2023-03-21T12:59:28.011Z,4.60
2023-03-21T13:02:04.714Z,3.05
2023-03-21T13:04:48.814Z,3.40
2023-03-21T13:07:21.555Z,5.13
2023-03-21T13:09:59.629Z,4.53
2023-03-21T13:12:51.934Z,3.90
2023-03-21T13:15:39.201Z,3.55
2023-03-21T13:18:19.575Z,3.35
2023-03-21T13:20:51.758Z,3.90
2023-03-21T13:23:20.484Z,5.07
2023-03-21T13:25:52.363Z,2.47
2023-03-21T13:28:24.289Z,3.10
2023-03-21T13:30:52.770Z,4.03
2023-03-21T13:33:29.478Z,2.70
2023-03-21T13:36:05.814Z,3.33
2023-03-21T13:38:36.516Z,3.10
2023-03-21T13:41:12.607Z,4.50
2023-03-21T13:43:44.722Z,3.42
2023-03-21T13:46:15.239Z,3.50
2023-03-21T13:48:58.239Z,3.08
2023-03-21T13:51:44.272Z,3.67
2023-03-21T13:54:21.749Z,6.20
2023-03-21T13:56:54.384Z,4.20
2023-03-21T13:59:39.612Z,3.67
2023-03-21T14:02:32.604Z,2.95
2023-03-21T14:05:07.690Z,5.57
2023-03-21T14:07:44.573Z,4.60
2023-03-21T14:10:24.782Z,4.38
2023-03-21T14:12:55.033Z,4.68
2023-03-21T14:15:27.661Z,3.67
2023-03-21T14:17:57.378Z,3.20
2023-03-21T14:20:27.528Z,5.28
2023-03-21T14:22:57.281Z,6.07
2023-03-21T14:25:40.999Z,5.25
2023-03-21T14:28:23.002Z,6.18
2023-03-21T14:30:55.159Z,7.25
2023-03-21T14:33:29.733Z,5.30
2023-03-21T14:36:02.098Z,3.83
2023-03-21T14:38:36.768Z,3.63
2023-03-21T14:41:06.746Z,5.13
2023-03-21T14:43:37.688Z,4.50
2023-03-21T14:46:06.951Z,3.28
2023-03-21T14:48:36.753Z,4.22
2023-03-21T14:51:13.802Z,6.05
2023-03-21T14:53:46.313Z,3.92
2023-03-21T14:56:21.610Z,4.30
2023-03-21T14:58:51.719Z,5.05
2023-03-21T15:01:32.320Z,5.85
2023-03-21T15:04:10.384Z,8.10
2023-03-21T15:06:52.202Z,9.98
2023-03-21T15:09:24.102Z,6.00
2023-03-21T15:11:55.007Z,6.50
2023-03-21T15:14:32.227Z,3.22
2023-03-21T15:17:04.563Z,6.72
2023-03-21T15:19:36.030Z,5.07
2023-03-21T15:22:10.689Z,4.68
2023-03-21T15:24:42.587Z,4.47
2023-03-21T15:27:17.763Z,6.65
2023-03-21T15:29:49.603Z,6.25
2023-03-21T15:32:23.177Z,4.20
2023-03-21T15:34:56.416Z,5.25
2023-03-21T15:37:32.270Z,6.43
2023-03-21T15:40:12.944Z,9.10
2023-03-21T15:42:42.546Z,6.18
2023-03-21T15:45:24.670Z,6.78
2023-03-21T15:47:55.765Z,6.30
2023-03-21T15:50:30.931Z,4.93
2023-03-21T15:53:04.452Z,5.97
2023-03-21T15:55:42.073Z,6.90
2023-03-21T15:58:16.651Z,5.93
2023-03-21T16:00:55.576Z,8.05
2023-03-21T16:03:29.668Z,8.43
2023-03-21T16:06:20.942Z,8.57
2023-03-21T16:08:51.012Z,8.38
2023-03-21T16:11:24.774Z,8.07
2023-03-21T16:13:54.718Z,9.30
2023-03-21T16:16:27.080Z,11.80
2023-03-21T16:18:56.566Z,9.10
2023-03-21T16:21:26.958Z,7.95
2023-03-21T16:23:55.838Z,7.07
2023-03-21T16:26:29.256Z,4.97
2023-03-21T16:28:57.931Z,8.43
2023-03-21T16:31:29.732Z,6.70
2023-03-21T16:34:04.630Z,7.15
2023-03-21T16:36:39.111Z,9.20
2023-03-21T16:39:18.933Z,8.93
2023-03-21T16:41:47.419Z,7.40
2023-03-21T16:44:18.932Z,7.70
2023-03-21T16:46:49.723Z,6.80
2023-03-21T16:49:22.270Z,8.90
2023-03-21T16:51:50.986Z,7.47
2023-03-21T16:54:21.979Z,7.20
2023-03-21T16:56:59.144Z,7.70
2023-03-21T16:59:28.128Z,8.48
2023-03-21T17:01:58.359Z,10.13
2023-03-21T17:04:29.218Z,7.07
2023-03-21T17:06:59.900Z,10.00
2023-03-21T17:09:28.291Z,14.15
2023-03-21T17:11:56.869Z,12.98
2023-03-21T17:14:25.524Z,11.13
2023-03-21T17:16:55.336Z,10.88
2023-03-21T17:19:26.623Z,10.57
2023-03-21T17:21:55.427Z,13.35
2023-03-21T17:24:26.522Z,12.80
2023-03-21T17:26:55.016Z,12.25
2023-03-21T17:29:24.124Z,16.02
2023-03-21T17:31:53.989Z,14.95
2023-03-21T17:34:23.374Z,14.38
2023-03-21T17:36:54.021Z,12.93
2023-03-21T17:39:29.038Z,14.23
2023-03-21T17:41:58.438Z,11.85
2023-03-21T17:44:29.439Z,17.90
2023-03-21T17:46:57.760Z,17.35
2023-03-21T17:49:26.999Z,16.33
2023-03-21T17:51:56.404Z,15.65
2023-03-21T17:54:25.360Z,11.70
2023-03-21T17:56:55.616Z,13.07
2023-03-21T17:59:24.369Z,11.07
2023-03-21T18:01:53.070Z,13.15
2023-03-21T18:04:22.240Z,9.48
2023-03-21T18:06:51.241Z,10.32
2023-03-21T18:09:21.764Z,7.30
2023-03-21T18:11:50.063Z,10.50
2023-03-21T18:14:24.876Z,7.95
2023-03-21T18:16:56.196Z,6.82
2023-03-21T18:19:24.953Z,7.10
2023-03-21T18:21:54.248Z,7.00
2023-03-21T18:24:25.778Z,9.55
2023-03-21T18:26:56.856Z,8.00
2023-03-21T18:32:13.566Z,9.82
2023-03-21T18:34:42.527Z,9.57
2023-03-21T18:37:13.348Z,8.85
2023-03-21T18:39:45.736Z,8.43
2023-03-21T18:42:18.283Z,9.37
2023-03-21T18:44:51.667Z,10.32
2023-03-21T18:47:22.898Z,7.22
2023-03-21T18:52:41.746Z,8.55
2023-03-21T18:55:14.634Z,12.70
2023-03-21T18:57:43.485Z,15.80
2023-03-21T19:00:17.958Z,13.50
2023-03-21T19:02:50.841Z,12.43
2023-03-21T19:08:02.210Z,12.38
2023-03-21T19:10:31.474Z,11.73
2023-03-21T19:13:00.234Z,10.95
2023-03-21T19:15:28.709Z,9.00
2023-03-21T19:20:48.687Z,8.52
2023-03-21T19:23:18.668Z,9.57
2023-03-21T19:25:48.147Z,14.07
2023-03-21T19:28:16.837Z,15.73
2023-03-21T19:30:50.407Z,15.48
2023-03-21T19:33:20.552Z,19.08
2023-03-21T19:35:50.303Z,27.33
2023-03-21T19:38:18.861Z,13.65
2023-03-21T19:40:48.539Z,15.93
2023-03-21T19:43:33.729Z,10.95
2023-03-21T19:46:02.936Z,10.63
2023-03-21T19:48:32.212Z,8.10
2023-03-21T19:51:26.762Z,9.23
2023-03-21T19:53:51.199Z,8.30
2023-03-21T19:56:23.059Z,9.85
2023-03-21T19:58:54.699Z,9.48
2023-03-21T20:01:24.199Z,12.25
2023-03-21T20:03:53.118Z,9.55
2023-03-21T20:06:24.157Z,8.15
2023-03-21T20:11:43.058Z,8.45
2023-03-21T20:14:11.333Z,10.32
2023-03-21T20:16:43.316Z,11.70
2023-03-21T20:19:15.947Z,12.27
2023-03-21T20:21:52.894Z,15.93
2023-03-21T20:24:24.513Z,16.55
2023-03-21T20:26:55.249Z,13.20
2023-03-21T20:32:13.461Z,9.68
2023-03-21T20:34:44.609Z,7.88
2023-03-21T20:37:13.555Z,8.73
2023-03-21T20:39:42.750Z,8.52
2023-03-21T20:42:12.202Z,8.98
2023-03-21T20:44:57.163Z,6.38
2023-03-21T20:47:26.844Z,6.57
2023-03-21T20:49:57.024Z,7.53
2023-03-21T20:52:57.432Z,7.20
2023-03-21T20:55:15.114Z,5.55
2023-03-21T20:57:45.041Z,7.22
2023-03-21T21:00:17.692Z,5.78
2023-03-21T21:02:47.720Z,4.82
2023-03-21T21:05:27.499Z,9.27
2023-03-21T21:07:57.711Z,5.25
2023-03-21T21:10:26.844Z,5.15
2023-03-21T21:12:56.280Z,5.85
2023-03-21T21:15:24.786Z,4.65
2023-03-21T21:18:06.460Z,7.32
2023-03-21T21:20:35.865Z,4.87
2023-03-21T21:23:04.956Z,8.40
2023-03-21T21:25:35.151Z,7.43
2023-03-21T21:28:09.437Z,6.03
2023-03-21T21:30:42.824Z,5.78
2023-03-21T21:33:11.282Z,5.65
2023-03-21T21:35:46.897Z,6.05
2023-03-21T21:38:17.775Z,5.65
2023-03-21T21:40:46.110Z,6.93
2023-03-21T21:43:19.722Z,5.00
2023-03-21T21:45:50.041Z,5.60
2023-03-21T21:48:20.964Z,6.97
2023-03-21T21:50:52.744Z,6.20
2023-03-21T21:53:21.843Z,6.55
2023-03-21T21:55:53.562Z,4.88
2023-03-21T21:58:25.921Z,5.55
2023-03-21T22:00:54.385Z,8.43
2023-03-21T22:03:23.374Z,9.88
2023-03-21T22:05:52.852Z,9.07
2023-03-21T22:08:23.327Z,9.95
2023-03-21T22:10:51.940Z,8.45
2023-03-21T22:13:22.995Z,7.45
2023-03-21T22:15:52.091Z,9.52
2023-03-21T22:18:20.336Z,9.05
2023-03-21T22:20:48.703Z,9.35
2023-03-21T22:23:19.477Z,8.25
2023-03-21T22:25:53.985Z,9.38
2023-03-21T22:28:25.726Z,8.98
2023-03-21T22:30:54.300Z,11.13
2023-03-21T22:33:22.790Z,8.70
2023-03-21T22:35:52.195Z,11.45
2023-03-21T22:38:28.170Z,10.02
2023-03-21T22:40:56.944Z,10.68
2023-03-21T22:43:26.904Z,12.45
2023-03-21T22:45:55.537Z,12.07
2023-03-21T22:48:24.025Z,14.98
2023-03-21T22:50:52.728Z,14.52
2023-03-21T22:53:21.039Z,11.60
2023-03-21T22:55:49.350Z,8.30
2023-03-21T22:58:18.136Z,11.85
2023-03-21T23:00:47.736Z,11.63
2023-03-21T23:03:16.810Z,8.60
2023-03-21T23:05:45.721Z,5.43
2023-03-21T23:08:14.457Z,8.90
2023-03-21T23:10:45.947Z,13.18
2023-03-21T23:13:14.407Z,7.68
2023-03-21T23:15:43.233Z,8.70
2023-03-21T23:18:13.194Z,11.45
2023-03-21T23:20:42.375Z,9.38
2023-03-21T23:23:10.918Z,8.07
2023-03-21T23:25:42.324Z,7.72
2023-03-21T23:28:10.550Z,7.70
2023-03-21T23:30:39.546Z,7.45
2023-03-21T23:33:07.948Z,8.40
2023-03-21T23:35:38.530Z,8.65
2023-03-21T23:38:07.246Z,6.45
2023-03-21T23:40:35.657Z,6.72
2023-03-21T23:43:04.395Z,6.20
2023-03-21T23:45:33.410Z,6.78
2023-03-21T23:48:01.711Z,7.68
2023-03-21T23:50:30.217Z,9.15
2023-03-21T23:53:00.415Z,7.63
2023-03-21T23:55:28.865Z,7.00
2023-03-21T23:57:59.318Z,10.30
